Tampa, Florida
Traffic Map
Current Weather Conditions
Tampa, Florida
Broken Clouds
Broken Clouds
28°
Feels Like: 30°
Wind Chill: 28° Ceiling: 21000
Heat Index: 30° Visibility: 10mi
Dew Point: 20° Wind: 6mph
Humidity: 60% Direction: 260° (W)
Pressure: 29.82in Gusts: 0mph
Raw Report DataKTPA 271653Z 26005KT 10SM BKN210 28/20 A2982 RMK AO2 SLP096 T02830200
Traffic Incident Summary
Active as of:
Severity:
Category:
InformationThere was an issue retrieving the traffic information for this location. Please try a different location or try again shortly.
Advertisements
Track Severe Weather on mobile